sensor_id;sensor_type;location;lat;lon;timestamp;P1;durP1;ratioP1;P2;durP2;ratioP2
1811;SDS011;904;47.814;11.134;2023-11-21T00:02:18;7.97;;;2.83;;
1811;SDS011;904;47.814;11.134;2023-11-21T00:04:45;8.10;;;2.38;;
1811;SDS011;904;47.814;11.134;2023-11-21T00:07:13;6.18;;;2.80;;
1811;SDS011;904;47.814;11.134;2023-11-21T00:09:41;5.20;;;2.20;;
1811;SDS011;904;47.814;11.134;2023-11-21T00:12:08;9.60;;;2.10;;
1811;SDS011;904;47.814;11.134;2023-11-21T00:14:35;9.85;;;3.10;;
1811;SDS011;904;47.814;11.134;2023-11-21T00:17:03;5.88;;;1.90;;
1811;SDS011;904;47.814;11.134;2023-11-21T00:19:31;8.82;;;2.13;;
1811;SDS011;904;47.814;11.134;2023-11-21T00:22:00;4.15;;;1.90;;
1811;SDS011;904;47.814;11.134;2023-11-21T00:24:27;3.47;;;1.52;;
1811;SDS011;904;47.814;11.134;2023-11-21T00:26:53;2.92;;;1.48;;
1811;SDS011;904;47.814;11.134;2023-11-21T00:29:21;6.38;;;2.10;;
1811;SDS011;904;47.814;11.134;2023-11-21T00:31:48;6.05;;;1.60;;
1811;SDS011;904;47.814;11.134;2023-11-21T00:34:15;7.38;;;2.35;;
1811;SDS011;904;47.814;11.134;2023-11-21T00:36:43;6.90;;;2.50;;
1811;SDS011;904;47.814;11.134;2023-11-21T00:39:10;3.72;;;2.10;;
1811;SDS011;904;47.814;11.134;2023-11-21T00:41:37;5.25;;;1.77;;
1811;SDS011;904;47.814;11.134;2023-11-21T00:44:04;6.82;;;2.17;;
1811;SDS011;904;47.814;11.134;2023-11-21T00:46:32;4.38;;;1.92;;
1811;SDS011;904;47.814;11.134;2023-11-21T00:48:59;8.50;;;2.40;;
1811;SDS011;904;47.814;11.134;2023-11-21T00:51:26;6.13;;;2.95;;
1811;SDS011;904;47.814;11.134;2023-11-21T00:53:54;5.43;;;2.08;;
1811;SDS011;904;47.814;11.134;2023-11-21T00:56:21;10.45;;;2.33;;
1811;SDS011;904;47.814;11.134;2023-11-21T00:58:49;9.10;;;2.65;;
1811;SDS011;904;47.814;11.134;2023-11-21T01:01:17;7.28;;;2.53;;
1811;SDS011;904;47.814;11.134;2023-11-21T01:03:45;8.73;;;2.33;;
1811;SDS011;904;47.814;11.134;2023-11-21T01:06:12;7.47;;;2.95;;
1811;SDS011;904;47.814;11.134;2023-11-21T01:08:39;6.03;;;2.33;;
1811;SDS011;904;47.814;11.134;2023-11-21T01:11:08;7.13;;;3.55;;
1811;SDS011;904;47.814;11.134;2023-11-21T01:13:37;7.18;;;2.70;;
1811;SDS011;904;47.814;11.134;2023-11-21T01:16:04;7.10;;;2.10;;
1811;SDS011;904;47.814;11.134;2023-11-21T01:18:32;8.52;;;2.55;;
1811;SDS011;904;47.814;11.134;2023-11-21T01:21:00;6.13;;;2.25;;
1811;SDS011;904;47.814;11.134;2023-11-21T01:23:27;7.93;;;2.40;;
1811;SDS011;904;47.814;11.134;2023-11-21T01:25:55;10.13;;;2.65;;
1811;SDS011;904;47.814;11.134;2023-11-21T01:28:24;5.70;;;1.98;;
1811;SDS011;904;47.814;11.134;2023-11-21T01:30:51;5.75;;;1.92;;
1811;SDS011;904;47.814;11.134;2023-11-21T01:33:21;6.55;;;2.55;;
1811;SDS011;904;47.814;11.134;2023-11-21T01:35:50;5.85;;;2.15;;
1811;SDS011;904;47.814;11.134;2023-11-21T01:38:20;8.63;;;2.58;;
1811;SDS011;904;47.814;11.134;2023-11-21T01:40:47;13.20;;;2.20;;
1811;SDS011;904;47.814;11.134;2023-11-21T01:43:14;5.72;;;2.17;;
1811;SDS011;904;47.814;11.134;2023-11-21T01:45:43;7.22;;;3.10;;
1811;SDS011;904;47.814;11.134;2023-11-21T01:48:11;8.70;;;3.20;;
1811;SDS011;904;47.814;11.134;2023-11-21T01:50:39;13.88;;;3.33;;
1811;SDS011;904;47.814;11.134;2023-11-21T01:53:06;5.55;;;2.70;;
1811;SDS011;904;47.814;11.134;2023-11-21T01:55:34;3.75;;;1.85;;
1811;SDS011;904;47.814;11.134;2023-11-21T01:58:01;6.10;;;2.40;;
1811;SDS011;904;47.814;11.134;2023-11-21T02:00:28;6.15;;;2.65;;
1811;SDS011;904;47.814;11.134;2023-11-21T02:02:57;3.70;;;1.98;;
1811;SDS011;904;47.814;11.134;2023-11-21T02:05:24;6.65;;;2.03;;
1811;SDS011;904;47.814;11.134;2023-11-21T02:07:52;11.18;;;3.10;;
1811;SDS011;904;47.814;11.134;2023-11-21T02:10:19;10.13;;;2.80;;
1811;SDS011;904;47.814;11.134;2023-11-21T02:12:48;7.10;;;2.83;;
1811;SDS011;904;47.814;11.134;2023-11-21T02:15:16;7.20;;;1.98;;
1811;SDS011;904;47.814;11.134;2023-11-21T02:17:45;6.60;;;2.30;;
1811;SDS011;904;47.814;11.134;2023-11-21T02:20:17;7.05;;;1.85;;
1811;SDS011;904;47.814;11.134;2023-11-21T02:22:48;3.70;;;1.40;;
1811;SDS011;904;47.814;11.134;2023-11-21T02:25:17;4.97;;;1.60;;
1811;SDS011;904;47.814;11.134;2023-11-21T02:27:44;4.30;;;2.13;;
1811;SDS011;904;47.814;11.134;2023-11-21T02:30:14;7.88;;;2.03;;
1811;SDS011;904;47.814;11.134;2023-11-21T02:32:41;4.70;;;1.75;;
1811;SDS011;904;47.814;11.134;2023-11-21T02:35:09;3.10;;;1.13;;
1811;SDS011;904;47.814;11.134;2023-11-21T02:37:37;3.08;;;1.40;;
1811;SDS011;904;47.814;11.134;2023-11-21T02:40:08;7.38;;;1.40;;
1811;SDS011;904;47.814;11.134;2023-11-21T02:42:37;4.85;;;1.50;;
1811;SDS011;904;47.814;11.134;2023-11-21T02:45:06;5.70;;;1.30;;
1811;SDS011;904;47.814;11.134;2023-11-21T02:47:34;4.80;;;1.55;;
1811;SDS011;904;47.814;11.134;2023-11-21T02:50:01;7.75;;;1.98;;
1811;SDS011;904;47.814;11.134;2023-11-21T02:52:28;3.33;;;1.42;;
1811;SDS011;904;47.814;11.134;2023-11-21T02:54:58;3.88;;;1.50;;
1811;SDS011;904;47.814;11.134;2023-11-21T02:57:26;4.32;;;1.45;;
1811;SDS011;904;47.814;11.134;2023-11-21T02:59:53;3.70;;;1.45;;
1811;SDS011;904;47.814;11.134;2023-11-21T03:02:21;3.63;;;1.65;;
1811;SDS011;904;47.814;11.134;2023-11-21T03:04:48;2.83;;;1.52;;
1811;SDS011;904;47.814;11.134;2023-11-21T03:07:15;4.32;;;1.30;;
1811;SDS011;904;47.814;11.134;2023-11-21T03:09:44;5.13;;;1.65;;
1811;SDS011;904;47.814;11.134;2023-11-21T03:12:11;4.00;;;1.63;;
1811;SDS011;904;47.814;11.134;2023-11-21T03:14:40;3.95;;;1.92;;
1811;SDS011;904;47.814;11.134;2023-11-21T03:17:06;4.00;;;1.52;;
1811;SDS011;904;47.814;11.134;2023-11-21T03:19:33;6.38;;;1.35;;
1811;SDS011;904;47.814;11.134;2023-11-21T03:22:00;4.45;;;1.60;;
1811;SDS011;904;47.814;11.134;2023-11-21T03:24:29;5.38;;;1.90;;
1811;SDS011;904;47.814;11.134;2023-11-21T03:26:56;8.13;;;1.65;;
1811;SDS011;904;47.814;11.134;2023-11-21T03:29:23;4.13;;;1.30;;
1811;SDS011;904;47.814;11.134;2023-11-21T03:31:51;4.82;;;1.98;;
1811;SDS011;904;47.814;11.134;2023-11-21T03:34:23;4.15;;;1.50;;
1811;SDS011;904;47.814;11.134;2023-11-21T03:36:51;6.15;;;1.50;;
1811;SDS011;904;47.814;11.134;2023-11-21T03:39:19;4.75;;;1.50;;
1811;SDS011;904;47.814;11.134;2023-11-21T03:41:47;4.82;;;1.30;;
1811;SDS011;904;47.814;11.134;2023-11-21T03:44:14;5.88;;;1.60;;
1811;SDS011;904;47.814;11.134;2023-11-21T03:46:42;4.28;;;1.40;;
1811;SDS011;904;47.814;11.134;2023-11-21T03:49:11;2.53;;;1.23;;
1811;SDS011;904;47.814;11.134;2023-11-21T03:51:38;4.63;;;1.55;;
1811;SDS011;904;47.814;11.134;2023-11-21T03:54:05;3.80;;;1.35;;
1811;SDS011;904;47.814;11.134;2023-11-21T03:56:32;3.60;;;1.55;;
1811;SDS011;904;47.814;11.134;2023-11-21T03:58:59;3.72;;;1.90;;
1811;SDS011;904;47.814;11.134;2023-11-21T04:01:26;3.60;;;1.70;;
1811;SDS011;904;47.814;11.134;2023-11-21T04:03:53;3.13;;;1.25;;
1811;SDS011;904;47.814;11.134;2023-11-21T04:06:22;2.60;;;1.00;;
1811;SDS011;904;47.814;11.134;2023-11-21T04:08:49;3.95;;;1.70;;
1811;SDS011;904;47.814;11.134;2023-11-21T04:11:16;2.28;;;1.20;;
1811;SDS011;904;47.814;11.134;2023-11-21T04:13:43;6.47;;;1.95;;
1811;SDS011;904;47.814;11.134;2023-11-21T04:16:12;4.03;;;1.60;;
1811;SDS011;904;47.814;11.134;2023-11-21T04:18:38;4.45;;;1.80;;
1811;SDS011;904;47.814;11.134;2023-11-21T04:21:06;8.43;;;1.90;;
1811;SDS011;904;47.814;11.134;2023-11-21T04:23:35;5.68;;;1.52;;
1811;SDS011;904;47.814;11.134;2023-11-21T04:26:02;2.85;;;1.58;;
1811;SDS011;904;47.814;11.134;2023-11-21T04:28:29;5.63;;;2.55;;
1811;SDS011;904;47.814;11.134;2023-11-21T04:30:56;3.53;;;1.67;;
1811;SDS011;904;47.814;11.134;2023-11-21T04:33:23;3.60;;;1.88;;
1811;SDS011;904;47.814;11.134;2023-11-21T04:35:50;2.83;;;1.55;;
1811;SDS011;904;47.814;11.134;2023-11-21T04:38:17;4.25;;;1.80;;
1811;SDS011;904;47.814;11.134;2023-11-21T04:40:46;2.58;;;1.40;;
1811;SDS011;904;47.814;11.134;2023-11-21T04:43:13;6.93;;;1.88;;
1811;SDS011;904;47.814;11.134;2023-11-21T04:45:40;6.70;;;2.35;;
1811;SDS011;904;47.814;11.134;2023-11-21T04:48:07;7.13;;;2.03;;
1811;SDS011;904;47.814;11.134;2023-11-21T04:50:35;5.53;;;1.70;;
1811;SDS011;904;47.814;11.134;2023-11-21T04:53:02;2.90;;;1.63;;
1811;SDS011;904;47.814;11.134;2023-11-21T04:55:29;7.00;;;1.90;;
1811;SDS011;904;47.814;11.134;2023-11-21T04:57:57;3.15;;;1.60;;
1811;SDS011;904;47.814;11.134;2023-11-21T05:00:24;4.60;;;1.50;;
1811;SDS011;904;47.814;11.134;2023-11-21T05:02:51;7.53;;;1.70;;
1811;SDS011;904;47.814;11.134;2023-11-21T05:05:18;9.20;;;3.28;;
1811;SDS011;904;47.814;11.134;2023-11-21T05:07:45;7.55;;;3.28;;
1811;SDS011;904;47.814;11.134;2023-11-21T05:10:14;4.82;;;2.08;;
1811;SDS011;904;47.814;11.134;2023-11-21T05:12:41;4.57;;;1.75;;
1811;SDS011;904;47.814;11.134;2023-11-21T05:15:11;5.35;;;3.45;;
1811;SDS011;904;47.814;11.134;2023-11-21T05:17:41;6.07;;;2.00;;
1811;SDS011;904;47.814;11.134;2023-11-21T05:20:09;4.03;;;1.85;;
1811;SDS011;904;47.814;11.134;2023-11-21T05:22:38;6.72;;;2.30;;
1811;SDS011;904;47.814;11.134;2023-11-21T05:25:05;5.13;;;2.47;;
1811;SDS011;904;47.814;11.134;2023-11-21T05:27:34;3.95;;;1.73;;
1811;SDS011;904;47.814;11.134;2023-11-21T05:30:01;3.70;;;2.03;;
1811;SDS011;904;47.814;11.134;2023-11-21T05:32:31;3.20;;;1.55;;
1811;SDS011;904;47.814;11.134;2023-11-21T05:34:59;5.57;;;2.20;;
1811;SDS011;904;47.814;11.134;2023-11-21T05:37:26;3.55;;;1.67;;
1811;SDS011;904;47.814;11.134;2023-11-21T05:39:53;4.93;;;2.05;;
1811;SDS011;904;47.814;11.134;2023-11-21T05:42:21;7.18;;;2.03;;
1811;SDS011;904;47.814;11.134;2023-11-21T05:44:51;3.42;;;1.80;;
1811;SDS011;904;47.814;11.134;2023-11-21T05:47:18;5.05;;;2.13;;
1811;SDS011;904;47.814;11.134;2023-11-21T05:49:48;4.00;;;2.00;;
1811;SDS011;904;47.814;11.134;2023-11-21T05:52:16;3.78;;;1.55;;
1811;SDS011;904;47.814;11.134;2023-11-21T05:54:43;3.42;;;1.80;;
1811;SDS011;904;47.814;11.134;2023-11-21T05:57:11;5.50;;;2.22;;
1811;SDS011;904;47.814;11.134;2023-11-21T05:59:38;3.88;;;2.13;;
1811;SDS011;904;47.814;11.134;2023-11-21T06:02:05;3.90;;;1.60;;
1811;SDS011;904;47.814;11.134;2023-11-21T06:04:33;7.68;;;1.33;;
1811;SDS011;904;47.814;11.134;2023-11-21T06:07:01;3.90;;;1.77;;
1811;SDS011;904;47.814;11.134;2023-11-21T06:09:29;5.80;;;1.23;;
1811;SDS011;904;47.814;11.134;2023-11-21T06:11:56;7.55;;;1.80;;
1811;SDS011;904;47.814;11.134;2023-11-21T06:14:23;3.00;;;1.63;;
1811;SDS011;904;47.814;11.134;2023-11-21T06:16:50;4.10;;;1.45;;
1811;SDS011;904;47.814;11.134;2023-11-21T06:19:17;2.67;;;1.30;;
1811;SDS011;904;47.814;11.134;2023-11-21T06:21:45;3.58;;;1.52;;
1811;SDS011;904;47.814;11.134;2023-11-21T06:24:13;6.45;;;2.67;;
1811;SDS011;904;47.814;11.134;2023-11-21T06:26:40;2.33;;;1.00;;
1811;SDS011;904;47.814;11.134;2023-11-21T06:29:07;7.20;;;1.30;;
1811;SDS011;904;47.814;11.134;2023-11-21T06:31:34;3.50;;;1.10;;
1811;SDS011;904;47.814;11.134;2023-11-21T06:34:01;3.30;;;1.45;;
1811;SDS011;904;47.814;11.134;2023-11-21T06:36:28;2.65;;;0.98;;
1811;SDS011;904;47.814;11.134;2023-11-21T06:38:55;2.25;;;0.88;;
1811;SDS011;904;47.814;11.134;2023-11-21T06:41:24;3.08;;;1.10;;
1811;SDS011;904;47.814;11.134;2023-11-21T06:43:51;3.50;;;1.27;;
1811;SDS011;904;47.814;11.134;2023-11-21T06:46:18;3.47;;;1.20;;
1811;SDS011;904;47.814;11.134;2023-11-21T06:48:45;3.03;;;1.30;;
1811;SDS011;904;47.814;11.134;2023-11-21T06:51:14;3.85;;;1.50;;
1811;SDS011;904;47.814;11.134;2023-11-21T06:53:44;3.63;;;1.98;;
1811;SDS011;904;47.814;11.134;2023-11-21T06:56:17;5.40;;;1.55;;
1811;SDS011;904;47.814;11.134;2023-11-21T06:58:46;4.18;;;1.40;;
1811;SDS011;904;47.814;11.134;2023-11-21T07:01:13;3.65;;;1.45;;
1811;SDS011;904;47.814;11.134;2023-11-21T07:03:40;3.72;;;1.83;;
1811;SDS011;904;47.814;11.134;2023-11-21T07:06:10;2.67;;;1.40;;
1811;SDS011;904;47.814;11.134;2023-11-21T07:08:37;3.85;;;1.67;;
1811;SDS011;904;47.814;11.134;2023-11-21T07:11:04;4.75;;;1.90;;
1811;SDS011;904;47.814;11.134;2023-11-21T07:13:32;4.18;;;1.98;;
1811;SDS011;904;47.814;11.134;2023-11-21T07:16:00;7.50;;;3.38;;
1811;SDS011;904;47.814;11.134;2023-11-21T07:18:28;4.15;;;1.60;;
1811;SDS011;904;47.814;11.134;2023-11-21T07:20:55;8.98;;;4.40;;
1811;SDS011;904;47.814;11.134;2023-11-21T07:23:23;3.30;;;2.03;;
1811;SDS011;904;47.814;11.134;2023-11-21T07:25:51;7.63;;;2.30;;
1811;SDS011;904;47.814;11.134;2023-11-21T07:28:18;6.63;;;1.75;;
1811;SDS011;904;47.814;11.134;2023-11-21T07:30:44;2.53;;;1.15;;
1811;SDS011;904;47.814;11.134;2023-11-21T07:33:13;5.03;;;1.13;;
1811;SDS011;904;47.814;11.134;2023-11-21T07:35:40;3.03;;;1.60;;
1811;SDS011;904;47.814;11.134;2023-11-21T07:38:07;7.72;;;2.00;;
1811;SDS011;904;47.814;11.134;2023-11-21T07:40:34;4.88;;;2.20;;
1811;SDS011;904;47.814;11.134;2023-11-21T07:43:01;5.22;;;1.80;;
1811;SDS011;904;47.814;11.134;2023-11-21T07:45:28;4.18;;;1.58;;
1811;SDS011;904;47.814;11.134;2023-11-21T07:47:55;2.65;;;1.00;;
1811;SDS011;904;47.814;11.134;2023-11-21T07:50:23;4.07;;;1.17;;
1811;SDS011;904;47.814;11.134;2023-11-21T07:52:51;2.85;;;1.55;;
1811;SDS011;904;47.814;11.134;2023-11-21T07:55:19;2.40;;;1.15;;
1811;SDS011;904;47.814;11.134;2023-11-21T07:57:46;3.45;;;1.35;;
1811;SDS011;904;47.814;11.134;2023-11-21T08:00:13;4.40;;;1.83;;
1811;SDS011;904;47.814;11.134;2023-11-21T08:02:41;4.40;;;1.70;;
1811;SDS011;904;47.814;11.134;2023-11-21T08:05:11;3.58;;;1.35;;
1811;SDS011;904;47.814;11.134;2023-11-21T08:07:39;3.92;;;1.35;;
1811;SDS011;904;47.814;11.134;2023-11-21T08:10:06;7.00;;;2.10;;
1811;SDS011;904;47.814;11.134;2023-11-21T08:12:35;4.10;;;1.73;;
1811;SDS011;904;47.814;11.134;2023-11-21T08:15:04;5.10;;;3.25;;
1811;SDS011;904;47.814;11.134;2023-11-21T08:17:32;7.70;;;3.60;;
1811;SDS011;904;47.814;11.134;2023-11-21T08:20:00;3.85;;;2.22;;
1811;SDS011;904;47.814;11.134;2023-11-21T08:22:28;5.45;;;3.25;;
1811;SDS011;904;47.814;11.134;2023-11-21T08:24:57;4.45;;;2.55;;
1811;SDS011;904;47.814;11.134;2023-11-21T08:27:24;6.50;;;2.85;;
1811;SDS011;904;47.814;11.134;2023-11-21T08:29:51;3.60;;;2.47;;
1811;SDS011;904;47.814;11.134;2023-11-21T08:32:18;4.15;;;2.03;;
1811;SDS011;904;47.814;11.134;2023-11-21T08:34:45;5.10;;;1.85;;
1811;SDS011;904;47.814;11.134;2023-11-21T08:37:15;3.25;;;1.20;;
1811;SDS011;904;47.814;11.134;2023-11-21T08:39:43;5.57;;;1.85;;
1811;SDS011;904;47.814;11.134;2023-11-21T08:42:12;2.97;;;1.30;;
1811;SDS011;904;47.814;11.134;2023-11-21T08:44:39;2.67;;;1.02;;
1811;SDS011;904;47.814;11.134;2023-11-21T08:47:06;2.30;;;0.80;;
1811;SDS011;904;47.814;11.134;2023-11-21T08:49:33;2.30;;;0.80;;
1811;SDS011;904;47.814;11.134;2023-11-21T08:52:00;1.80;;;0.70;;
1811;SDS011;904;47.814;11.134;2023-11-21T08:54:27;2.00;;;0.70;;
1811;SDS011;904;47.814;11.134;2023-11-21T08:56:57;2.20;;;1.27;;
1811;SDS011;904;47.814;11.134;2023-11-21T08:59:25;2.05;;;0.80;;
1811;SDS011;904;47.814;11.134;2023-11-21T09:01:52;2.58;;;1.15;;
1811;SDS011;904;47.814;11.134;2023-11-21T09:04:19;2.03;;;0.70;;
1811;SDS011;904;47.814;11.134;2023-11-21T09:06:46;2.50;;;1.10;;
1811;SDS011;904;47.814;11.134;2023-11-21T09:09:13;6.70;;;1.45;;
1811;SDS011;904;47.814;11.134;2023-11-21T09:11:40;2.63;;;1.75;;
1811;SDS011;904;47.814;11.134;2023-11-21T09:14:09;3.10;;;1.48;;
1811;SDS011;904;47.814;11.134;2023-11-21T09:16:39;3.22;;;1.10;;
1811;SDS011;904;47.814;11.134;2023-11-21T09:19:06;2.15;;;1.00;;
1811;SDS011;904;47.814;11.134;2023-11-21T09:21:33;3.50;;;0.95;;
1811;SDS011;904;47.814;11.134;2023-11-21T09:24:01;2.90;;;1.25;;
1811;SDS011;904;47.814;11.134;2023-11-21T09:26:28;3.63;;;1.40;;
1811;SDS011;904;47.814;11.134;2023-11-21T09:28:55;2.80;;;1.05;;
1811;SDS011;904;47.814;11.134;2023-11-21T09:31:22;3.22;;;0.90;;
1811;SDS011;904;47.814;11.134;2023-11-21T09:33:51;2.13;;;0.95;;
1811;SDS011;904;47.814;11.134;2023-11-21T09:36:18;2.40;;;0.87;;
1811;SDS011;904;47.814;11.134;2023-11-21T09:38:52;2.80;;;1.00;;
1811;SDS011;904;47.814;11.134;2023-11-21T09:41:21;4.85;;;1.25;;
1811;SDS011;904;47.814;11.134;2023-11-21T09:43:55;2.10;;;1.00;;
1811;SDS011;904;47.814;11.134;2023-11-21T09:46:25;3.28;;;0.90;;
1811;SDS011;904;47.814;11.134;2023-11-21T09:48:56;3.10;;;1.00;;
1811;SDS011;904;47.814;11.134;2023-11-21T09:51:26;3.60;;;1.17;;
1811;SDS011;904;47.814;11.134;2023-11-21T09:53:58;2.80;;;1.00;;
1811;SDS011;904;47.814;11.134;2023-11-21T09:56:32;3.28;;;0.98;;
1811;SDS011;904;47.814;11.134;2023-11-21T09:58:59;2.30;;;1.07;;
1811;SDS011;904;47.814;11.134;2023-11-21T10:01:33;2.65;;;1.17;;
1811;SDS011;904;47.814;11.134;2023-11-21T10:04:04;2.23;;;1.07;;
1811;SDS011;904;47.814;11.134;2023-11-21T10:06:36;2.20;;;1.03;;
1811;SDS011;904;47.814;11.134;2023-11-21T10:09:05;3.30;;;1.53;;
1811;SDS011;904;47.814;11.134;2023-11-21T10:11:36;1.87;;;0.90;;
1811;SDS011;904;47.814;11.134;2023-11-21T10:14:07;4.10;;;1.00;;
1811;SDS011;904;47.814;11.134;2023-11-21T10:16:37;2.10;;;1.03;;
1811;SDS011;904;47.814;11.134;2023-11-21T10:19:07;2.23;;;0.87;;
1811;SDS011;904;47.814;11.134;2023-11-21T10:21:35;3.00;;;1.00;;
1811;SDS011;904;47.814;11.134;2023-11-21T10:24:04;2.47;;;0.73;;
1811;SDS011;904;47.814;11.134;2023-11-21T10:26:32;2.60;;;0.80;;
1811;SDS011;904;47.814;11.134;2023-11-21T10:29:01;2.20;;;0.80;;
1811;SDS011;904;47.814;11.134;2023-11-21T10:31:29;4.77;;;1.47;;
1811;SDS011;904;47.814;11.134;2023-11-21T10:33:57;2.80;;;0.90;;
1811;SDS011;904;47.814;11.134;2023-11-21T10:36:42;2.75;;;1.20;;
1811;SDS011;904;47.814;11.134;2023-11-21T10:39:09;3.80;;;1.00;;
1811;SDS011;904;47.814;11.134;2023-11-21T10:41:43;2.90;;;1.13;;
1811;SDS011;904;47.814;11.134;2023-11-21T10:44:10;2.40;;;1.10;;
1811;SDS011;904;47.814;11.134;2023-11-21T10:46:39;3.73;;;1.00;;
1811;SDS011;904;47.814;11.134;2023-11-21T10:49:09;2.70;;;1.00;;
1811;SDS011;904;47.814;11.134;2023-11-21T10:51:38;2.50;;;0.80;;
1811;SDS011;904;47.814;11.134;2023-11-21T10:54:10;1.90;;;0.80;;
1811;SDS011;904;47.814;11.134;2023-11-21T10:56:37;2.80;;;1.10;;
1811;SDS011;904;47.814;11.134;2023-11-21T10:59:08;2.90;;;1.23;;
1811;SDS011;904;47.814;11.134;2023-11-21T11:01:39;2.53;;;0.90;;
1811;SDS011;904;47.814;11.134;2023-11-21T11:04:08;1.80;;;0.80;;
1811;SDS011;904;47.814;11.134;2023-11-21T11:06:41;1.90;;;0.87;;
1811;SDS011;904;47.814;11.134;2023-11-21T11:09:10;2.10;;;0.97;;
1811;SDS011;904;47.814;11.134;2023-11-21T11:11:39;2.50;;;0.70;;
1811;SDS011;904;47.814;11.134;2023-11-21T11:14:10;2.97;;;0.77;;
1811;SDS011;904;47.814;11.134;2023-11-21T11:16:41;1.80;;;0.70;;
1811;SDS011;904;47.814;11.134;2023-11-21T11:19:09;2.07;;;0.83;;
1811;SDS011;904;47.814;11.134;2023-11-21T11:21:41;1.70;;;0.70;;
1811;SDS011;904;47.814;11.134;2023-11-21T11:24:27;3.30;;;1.30;;
1811;SDS011;904;47.814;11.134;2023-11-21T11:27:08;2.10;;;1.30;;
1811;SDS011;904;47.814;11.134;2023-11-21T11:29:42;2.87;;;0.90;;
1811;SDS011;904;47.814;11.134;2023-11-21T11:32:27;2.00;;;1.00;;
1811;SDS011;904;47.814;11.134;2023-11-21T11:35:06;2.20;;;0.87;;
1811;SDS011;904;47.814;11.134;2023-11-21T11:37:41;2.60;;;1.40;;
1811;SDS011;904;47.814;11.134;2023-11-21T11:40:09;2.10;;;0.80;;
1811;SDS011;904;47.814;11.134;2023-11-21T11:42:38;3.13;;;1.40;;
1811;SDS011;904;47.814;11.134;2023-11-21T11:45:17;3.97;;;0.90;;
1811;SDS011;904;47.814;11.134;2023-11-21T11:47:45;2.13;;;0.70;;
1811;SDS011;904;47.814;11.134;2023-11-21T11:50:14;2.90;;;1.20;;
1811;SDS011;904;47.814;11.134;2023-11-21T11:52:46;2.83;;;1.03;;
1811;SDS011;904;47.814;11.134;2023-11-21T11:55:16;4.70;;;1.20;;
1811;SDS011;904;47.814;11.134;2023-11-21T11:57:44;2.13;;;0.70;;
1811;SDS011;904;47.814;11.134;2023-11-21T12:00:14;2.40;;;0.77;;
1811;SDS011;904;47.814;11.134;2023-11-21T12:02:46;2.00;;;0.80;;
1811;SDS011;904;47.814;11.134;2023-11-21T12:05:15;2.27;;;1.23;;
1811;SDS011;904;47.814;11.134;2023-11-21T12:07:45;2.40;;;1.00;;
1811;SDS011;904;47.814;11.134;2023-11-21T12:10:14;4.00;;;1.10;;
1811;SDS011;904;47.814;11.134;2023-11-21T12:12:44;2.23;;;1.20;;
1811;SDS011;904;47.814;11.134;2023-11-21T12:15:12;1.93;;;0.83;;
1811;SDS011;904;47.814;11.134;2023-11-21T12:17:40;2.73;;;1.30;;
1811;SDS011;904;47.814;11.134;2023-11-21T12:20:09;2.23;;;1.07;;
1811;SDS011;904;47.814;11.134;2023-11-21T12:22:44;3.47;;;1.00;;
1811;SDS011;904;47.814;11.134;2023-11-21T12:25:15;2.53;;;0.80;;
1811;SDS011;904;47.814;11.134;2023-11-21T12:27:43;2.57;;;0.90;;
1811;SDS011;904;47.814;11.134;2023-11-21T12:30:12;2.10;;;1.00;;
1811;SDS011;904;47.814;11.134;2023-11-21T12:32:41;2.40;;;0.90;;
1811;SDS011;904;47.814;11.134;2023-11-21T12:35:09;2.20;;;0.90;;
1811;SDS011;904;47.814;11.134;2023-11-21T12:37:37;2.40;;;1.00;;
1811;SDS011;904;47.814;11.134;2023-11-21T12:40:05;5.70;;;1.10;;
1811;SDS011;904;47.814;11.134;2023-11-21T12:42:38;1.90;;;1.00;;
1811;SDS011;904;47.814;11.134;2023-11-21T12:45:07;2.40;;;1.30;;
1811;SDS011;904;47.814;11.134;2023-11-21T12:47:39;3.30;;;1.17;;
1811;SDS011;904;47.814;11.134;2023-11-21T12:50:07;2.60;;;1.10;;
1811;SDS011;904;47.814;11.134;2023-11-21T12:52:39;4.40;;;1.40;;
1811;SDS011;904;47.814;11.134;2023-11-21T12:55:09;3.20;;;1.80;;
1811;SDS011;904;47.814;11.134;2023-11-21T12:57:42;2.10;;;0.80;;
1811;SDS011;904;47.814;11.134;2023-11-21T13:00:10;2.00;;;0.83;;
1811;SDS011;904;47.814;11.134;2023-11-21T13:02:50;2.37;;;1.00;;
1811;SDS011;904;47.814;11.134;2023-11-21T13:05:23;2.90;;;0.90;;
1811;SDS011;904;47.814;11.134;2023-11-21T13:07:51;2.57;;;1.03;;
1811;SDS011;904;47.814;11.134;2023-11-21T13:10:19;2.10;;;1.00;;
1811;SDS011;904;47.814;11.134;2023-11-21T13:12:52;2.57;;;1.37;;
1811;SDS011;904;47.814;11.134;2023-11-21T13:15:20;2.93;;;1.10;;
1811;SDS011;904;47.814;11.134;2023-11-21T13:17:48;4.40;;;1.10;;
1811;SDS011;904;47.814;11.134;2023-11-21T13:20:16;2.07;;;1.07;;
1811;SDS011;904;47.814;11.134;2023-11-21T13:22:48;2.23;;;1.00;;
1811;SDS011;904;47.814;11.134;2023-11-21T13:25:19;2.83;;;1.20;;
1811;SDS011;904;47.814;11.134;2023-11-21T13:27:46;3.57;;;1.10;;
1811;SDS011;904;47.814;11.134;2023-11-21T13:30:15;2.17;;;1.03;;
1811;SDS011;904;47.814;11.134;2023-11-21T13:32:43;2.43;;;1.27;;
1811;SDS011;904;47.814;11.134;2023-11-21T13:35:11;2.57;;;1.33;;
1811;SDS011;904;47.814;11.134;2023-11-21T13:37:48;2.97;;;0.90;;
1811;SDS011;904;47.814;11.134;2023-11-21T13:40:21;2.30;;;0.60;;
1811;SDS011;904;47.814;11.134;2023-11-21T13:42:51;2.30;;;0.70;;
1811;SDS011;904;47.814;11.134;2023-11-21T13:45:25;2.03;;;0.80;;
1811;SDS011;904;47.814;11.134;2023-11-21T13:47:53;2.10;;;0.70;;
1811;SDS011;904;47.814;11.134;2023-11-21T13:50:23;1.80;;;0.60;;
1811;SDS011;904;47.814;11.134;2023-11-21T13:52:54;1.70;;;0.70;;
1811;SDS011;904;47.814;11.134;2023-11-21T13:55:21;1.80;;;0.83;;
1811;SDS011;904;47.814;11.134;2023-11-21T13:57:50;1.70;;;0.60;;
1811;SDS011;904;47.814;11.134;2023-11-21T14:00:17;2.03;;;0.60;;
1811;SDS011;904;47.814;11.134;2023-11-21T14:03:04;1.80;;;0.80;;
1811;SDS011;904;47.814;11.134;2023-11-21T14:05:36;1.93;;;0.70;;
1811;SDS011;904;47.814;11.134;2023-11-21T14:08:04;1.63;;;0.60;;
1811;SDS011;904;47.814;11.134;2023-11-21T14:10:31;1.70;;;0.63;;
1811;SDS011;904;47.814;11.134;2023-11-21T14:13:05;1.80;;;0.70;;
1811;SDS011;904;47.814;11.134;2023-11-21T14:15:32;2.67;;;0.70;;
1811;SDS011;904;47.814;11.134;2023-11-21T14:18:05;1.83;;;0.70;;
1811;SDS011;904;47.814;11.134;2023-11-21T14:20:35;1.70;;;0.60;;
1811;SDS011;904;47.814;11.134;2023-11-21T14:23:02;2.00;;;0.60;;
1811;SDS011;904;47.814;11.134;2023-11-21T14:25:31;1.80;;;0.60;;
1811;SDS011;904;47.814;11.134;2023-11-21T14:27:58;2.07;;;0.70;;
1811;SDS011;904;47.814;11.134;2023-11-21T14:30:25;2.47;;;0.90;;
1811;SDS011;904;47.814;11.134;2023-11-21T14:32:54;1.80;;;0.70;;
1811;SDS011;904;47.814;11.134;2023-11-21T14:35:22;2.00;;;0.80;;
1811;SDS011;904;47.814;11.134;2023-11-21T14:37:49;1.77;;;0.63;;
1811;SDS011;904;47.814;11.134;2023-11-21T14:40:17;1.93;;;0.70;;
1811;SDS011;904;47.814;11.134;2023-11-21T14:42:46;8.53;;;2.57;;
1811;SDS011;904;47.814;11.134;2023-11-21T14:45:13;6.80;;;2.90;;
1811;SDS011;904;47.814;11.134;2023-11-21T14:47:45;4.20;;;1.87;;
1811;SDS011;904;47.814;11.134;2023-11-21T14:50:19;4.33;;;2.30;;
1811;SDS011;904;47.814;11.134;2023-11-21T14:53:02;3.67;;;2.03;;
1811;SDS011;904;47.814;11.134;2023-11-21T14:55:31;2.40;;;1.00;;
1811;SDS011;904;47.814;11.134;2023-11-21T14:58:04;3.37;;;1.37;;
1811;SDS011;904;47.814;11.134;2023-11-21T15:00:38;2.87;;;1.07;;
1811;SDS011;904;47.814;11.134;2023-11-21T15:03:09;2.10;;;0.88;;
1811;SDS011;904;47.814;11.134;2023-11-21T15:05:50;4.30;;;1.70;;
1811;SDS011;904;47.814;11.134;2023-11-21T15:08:17;4.03;;;1.90;;
1811;SDS011;904;47.814;11.134;2023-11-21T15:10:51;7.60;;;2.90;;
1811;SDS011;904;47.814;11.134;2023-11-21T15:13:19;4.25;;;2.50;;
1811;SDS011;904;47.814;11.134;2023-11-21T15:15:47;3.72;;;2.28;;
1811;SDS011;904;47.814;11.134;2023-11-21T15:18:13;4.30;;;2.40;;
1811;SDS011;904;47.814;11.134;2023-11-21T15:20:40;2.63;;;1.85;;
1811;SDS011;904;47.814;11.134;2023-11-21T15:23:08;5.15;;;2.60;;
1811;SDS011;904;47.814;11.134;2023-11-21T15:25:39;5.07;;;2.90;;